createdAt,value
2023-08-04T00:01:58.357Z,10.65
2023-08-04T00:04:01.324Z,18.98
2023-08-04T00:06:09.572Z,27.90
2023-08-04T00:08:14.435Z,17.13
2023-08-04T00:10:17.376Z,17.40
2023-08-04T00:12:20.311Z,14.07
2023-08-04T00:14:23.310Z,10.95
2023-08-04T00:16:27.657Z,15.98
2023-08-04T00:18:30.677Z,19.83
2023-08-04T00:20:33.585Z,14.90
2023-08-04T00:22:36.603Z,14.27
2023-08-04T00:24:39.553Z,18.35
2023-08-04T00:26:42.434Z,18.67
2023-08-04T00:28:45.404Z,14.38
2023-08-04T00:30:48.823Z,11.32
2023-08-04T00:32:53.285Z,15.13
2023-08-04T00:34:55.222Z,13.60
2023-08-04T00:36:58.237Z,10.57
2023-08-04T00:39:01.195Z,18.27
2023-08-04T00:41:04.557Z,11.32
2023-08-04T00:43:08.233Z,13.18
2023-08-04T00:45:12.260Z,12.38
2023-08-04T00:47:15.420Z,10.82
2023-08-04T00:49:20.109Z,15.32
2023-08-04T00:51:23.108Z,15.23
2023-08-04T00:53:26.106Z,12.52
2023-08-04T00:55:28.484Z,18.23
2023-08-04T00:57:31.463Z,16.98
2023-08-04T00:59:34.408Z,11.65
2023-08-04T01:01:36.555Z,11.63
2023-08-04T01:03:40.404Z,16.23
2023-08-04T01:05:47.147Z,13.52
2023-08-04T01:07:58.259Z,14.57
2023-08-04T01:10:09.021Z,13.40
2023-08-04T01:12:16.782Z,24.35
2023-08-04T01:14:20.701Z,18.70
2023-08-04T01:16:23.867Z,18.33
2023-08-04T01:18:26.952Z,21.23
2023-08-04T01:20:29.983Z,23.27
2023-08-04T01:22:34.192Z,13.23
2023-08-04T01:24:37.157Z,18.95
2023-08-04T01:26:42.810Z,16.02
2023-08-04T01:28:47.146Z,18.80
2023-08-04T01:30:51.919Z,14.63
2023-08-04T01:32:55.084Z,16.23
2023-08-04T01:35:00.552Z,13.68
2023-08-04T01:37:03.653Z,22.95
2023-08-04T01:39:08.060Z,14.20
2023-08-04T01:41:10.976Z,15.18
2023-08-04T01:43:14.019Z,15.07
2023-08-04T01:45:17.183Z,16.80
2023-08-04T01:47:20.283Z,19.15
2023-08-04T01:49:23.270Z,15.02
2023-08-04T01:51:26.190Z,22.08
2023-08-04T01:53:29.180Z,21.33
2023-08-04T01:55:33.435Z,20.65
2023-08-04T01:57:36.514Z,22.00
2023-08-04T01:59:39.479Z,8.85
2023-08-04T02:01:43.693Z,16.42
2023-08-04T02:03:46.610Z,17.70
2023-08-04T02:05:50.432Z,15.27
2023-08-04T02:07:53.374Z,14.05
2023-08-04T02:09:56.332Z,14.05
2023-08-04T02:12:01.023Z,14.13
2023-08-04T02:14:03.978Z,20.52
2023-08-04T02:16:07.069Z,10.57
2023-08-04T02:18:10.102Z,14.95
2023-08-04T02:20:13.413Z,17.25
2023-08-04T02:22:15.335Z,16.17
2023-08-04T02:24:18.473Z,15.13
2023-08-04T02:26:21.402Z,12.20
2023-08-04T02:28:25.684Z,14.63
2023-08-04T02:30:28.679Z,13.35
2023-08-04T02:32:32.160Z,17.42
2023-08-04T02:34:35.102Z,18.27
2023-08-04T02:36:38.187Z,20.35
2023-08-04T02:38:41.176Z,14.40
2023-08-04T02:40:44.070Z,17.98
2023-08-04T02:42:47.099Z,17.05
2023-08-04T02:44:56.342Z,15.40
2023-08-04T02:46:59.473Z,22.05
2023-08-04T02:49:03.203Z,16.40
2023-08-04T02:51:08.663Z,18.20
2023-08-04T02:53:11.628Z,28.20
2023-08-04T02:55:14.961Z,14.98
2023-08-04T02:57:17.929Z,17.30
2023-08-04T02:59:20.822Z,17.25
2023-08-04T03:01:25.238Z,28.38
2023-08-04T03:03:27.199Z,25.75
2023-08-04T03:05:30.176Z,19.75
2023-08-04T03:07:33.859Z,19.67
2023-08-04T03:09:36.766Z,25.95
2023-08-04T03:11:39.681Z,13.30
2023-08-04T03:13:42.592Z,22.40
2023-08-04T03:15:44.505Z,28.38
2023-08-04T03:17:48.949Z,24.05
2023-08-04T03:19:52.521Z,23.45
2023-08-04T03:21:55.486Z,24.65
2023-08-04T03:23:58.445Z,23.98
2023-08-04T03:26:01.342Z,23.67
2023-08-04T03:28:03.300Z,19.95
2023-08-04T03:30:07.010Z,13.88
2023-08-04T03:32:09.926Z,26.63
2023-08-04T03:34:14.172Z,29.38
2023-08-04T03:36:17.148Z,21.92
2023-08-04T03:38:20.116Z,29.08
2023-08-04T03:40:23.127Z,24.27
2023-08-04T03:42:26.121Z,25.40
2023-08-04T03:44:29.092Z,25.70
2023-08-04T03:46:32.114Z,24.95
2023-08-04T03:48:35.177Z,18.73
2023-08-04T03:50:39.634Z,20.02
2023-08-04T03:52:42.556Z,21.98
2023-08-04T03:54:45.506Z,16.70
2023-08-04T03:56:48.423Z,20.08
2023-08-04T03:58:52.299Z,17.73
2023-08-04T04:00:55.400Z,25.90
2023-08-04T04:02:58.331Z,25.08
2023-08-04T04:05:01.342Z,22.48
2023-08-04T04:07:06.222Z,20.92
2023-08-04T04:09:09.122Z,23.77
2023-08-04T04:11:12.099Z,27.98
2023-08-04T04:13:15.027Z,21.67
2023-08-04T04:15:18.007Z,23.52
2023-08-04T04:17:20.971Z,18.92
2023-08-04T04:19:23.950Z,21.77
2023-08-04T04:21:26.952Z,19.85
2023-08-04T04:23:31.408Z,19.70
2023-08-04T04:25:34.335Z,26.75
2023-08-04T04:27:37.301Z,28.70
2023-08-04T04:29:40.269Z,22.27
2023-08-04T04:31:43.248Z,22.10
2023-08-04T04:33:46.159Z,23.98
2023-08-04T04:35:50.197Z,20.83
2023-08-04T04:37:53.139Z,28.15
2023-08-04T04:39:57.500Z,20.77
2023-08-04T04:42:00.409Z,27.23
2023-08-04T04:44:03.505Z,19.58
2023-08-04T04:46:06.467Z,31.85
2023-08-04T04:48:09.452Z,30.83
2023-08-04T04:50:12.414Z,34.60
2023-08-04T04:52:17.182Z,26.48
2023-08-04T04:54:20.294Z,27.80
2023-08-04T04:56:25.730Z,25.73
2023-08-04T04:58:29.008Z,27.90
2023-08-04T05:00:32.700Z,32.10
2023-08-04T05:02:35.615Z,31.98
2023-08-04T05:04:38.518Z,26.20
2023-08-04T05:06:41.433Z,20.77
2023-08-04T05:08:44.392Z,25.35
2023-08-04T05:10:52.044Z,25.75
2023-08-04T05:12:56.404Z,35.28
2023-08-04T05:14:59.294Z,31.30
2023-08-04T05:17:02.281Z,32.97
2023-08-04T05:19:05.168Z,26.88
2023-08-04T05:21:08.085Z,21.73
2023-08-04T05:23:11.040Z,24.10
2023-08-04T05:25:14.029Z,30.67
2023-08-04T05:27:16.981Z,24.77
2023-08-04T05:29:24.282Z,30.75
2023-08-04T05:31:27.218Z,18.92
2023-08-04T05:33:31.430Z,28.17
2023-08-04T05:35:38.687Z,27.83
2023-08-04T05:37:41.633Z,38.10
2023-08-04T05:39:44.555Z,25.85
2023-08-04T05:41:49.272Z,27.60
2023-08-04T05:43:52.380Z,35.40
2023-08-04T05:45:56.794Z,24.92
2023-08-04T05:47:59.869Z,34.60
2023-08-04T05:50:02.911Z,32.53
2023-08-04T05:52:06.255Z,35.30
2023-08-04T05:54:09.235Z,29.70
2023-08-04T05:56:12.393Z,24.48
2023-08-04T05:58:15.378Z,35.15
2023-08-04T06:00:18.631Z,39.75
2023-08-04T06:02:23.131Z,30.83
2023-08-04T06:04:28.754Z,39.30
2023-08-04T06:06:31.853Z,35.58
2023-08-04T06:08:34.958Z,24.58
2023-08-04T06:10:37.992Z,22.38
2023-08-04T06:12:40.033Z,22.27
2023-08-04T06:14:44.338Z,26.98
2023-08-04T06:16:47.261Z,30.30
2023-08-04T06:18:51.545Z,30.50
2023-08-04T06:20:54.604Z,30.77
2023-08-04T06:22:57.516Z,29.58
2023-08-04T06:25:00.456Z,24.58
2023-08-04T06:27:04.556Z,33.72
2023-08-04T06:29:07.493Z,25.52
2023-08-04T06:31:10.501Z,30.75
2023-08-04T06:33:13.636Z,26.48
2023-08-04T06:35:18.257Z,34.70
2023-08-04T06:37:20.304Z,38.75
2023-08-04T06:39:23.417Z,22.52
2023-08-04T06:41:26.375Z,27.42
2023-08-04T06:43:29.341Z,27.20
2023-08-04T06:45:31.376Z,22.40
2023-08-04T06:47:34.343Z,23.65
2023-08-04T06:49:36.352Z,28.30
2023-08-04T06:51:40.870Z,23.20
2023-08-04T06:53:43.866Z,28.30
2023-08-04T06:55:47.562Z,22.10
2023-08-04T06:57:50.640Z,24.45
2023-08-04T06:59:53.643Z,19.48
2023-08-04T07:01:55.591Z,24.45
2023-08-04T07:03:58.566Z,15.65
2023-08-04T07:06:02.079Z,28.30
2023-08-04T07:08:06.429Z,20.65
2023-08-04T07:10:11.879Z,15.65
2023-08-04T07:12:14.831Z,29.50
2023-08-04T07:14:17.867Z,27.25
2023-08-04T07:16:20.900Z,17.42
2023-08-04T07:18:24.013Z,22.50
2023-08-04T07:20:26.173Z,27.75
2023-08-04T07:22:29.132Z,23.20
2023-08-04T07:24:33.452Z,23.25
2023-08-04T07:26:36.505Z,14.75
2023-08-04T07:28:38.561Z,20.80
2023-08-04T07:30:41.734Z,13.18
2023-08-04T07:32:45.006Z,22.00
2023-08-04T07:34:48.107Z,18.98
2023-08-04T07:36:51.316Z,20.48
2023-08-04T07:38:54.378Z,19.95
2023-08-04T07:40:59.104Z,15.63
2023-08-04T07:43:02.096Z,14.80
2023-08-04T07:45:05.438Z,16.08
2023-08-04T07:47:08.466Z,15.75
2023-08-04T07:49:11.577Z,16.83
2023-08-04T07:51:14.581Z,14.38
2023-08-04T07:53:23.253Z,16.27
2023-08-04T07:55:26.237Z,12.63
2023-08-04T07:57:30.894Z,27.00
2023-08-04T07:59:34.117Z,17.20
2023-08-04T08:01:37.079Z,20.63
2023-08-04T08:03:40.164Z,13.05
2023-08-04T08:05:43.290Z,11.40
2023-08-04T08:07:46.537Z,12.65
2023-08-04T08:09:49.594Z,8.95
2023-08-04T08:11:52.774Z,13.80
2023-08-04T08:13:57.083Z,17.65
2023-08-04T08:15:59.032Z,9.45
2023-08-04T08:18:02.063Z,7.50
2023-08-04T08:20:05.584Z,13.00
2023-08-04T08:22:08.532Z,13.32
2023-08-04T08:24:11.948Z,11.75
2023-08-04T08:26:17.062Z,7.32
2023-08-04T08:28:20.328Z,11.88
2023-08-04T08:30:24.706Z,16.60
2023-08-04T08:32:27.794Z,16.98
2023-08-04T08:34:30.847Z,12.32
2023-08-04T08:36:33.740Z,18.63
2023-08-04T08:38:36.664Z,13.23
2023-08-04T08:40:39.623Z,11.75
2023-08-04T08:42:42.702Z,10.80
2023-08-04T08:44:45.672Z,13.93
2023-08-04T08:46:49.087Z,20.70
2023-08-04T08:48:52.293Z,9.10
2023-08-04T08:50:59.952Z,9.05
2023-08-04T08:53:05.502Z,9.82
2023-08-04T08:55:09.570Z,10.82
2023-08-04T08:57:13.642Z,10.77
2023-08-04T08:59:16.891Z,10.23
2023-08-04T09:01:20.704Z,8.38
2023-08-04T09:03:25.240Z,12.30
2023-08-04T09:05:28.200Z,9.80
2023-08-04T09:07:31.255Z,13.63
2023-08-04T09:09:35.735Z,10.63
2023-08-04T09:11:38.783Z,7.00
2023-08-04T09:13:42.756Z,6.22
2023-08-04T09:15:49.810Z,14.63
2023-08-04T09:17:52.863Z,4.95
2023-08-04T09:19:57.274Z,7.78
2023-08-04T09:22:00.253Z,6.85
2023-08-04T09:24:04.100Z,9.85
2023-08-04T09:26:07.077Z,5.05
2023-08-04T09:28:15.327Z,9.55
2023-08-04T09:30:19.374Z,7.35
2023-08-04T09:32:24.000Z,7.82
2023-08-04T09:34:26.947Z,7.63
2023-08-04T09:36:31.797Z,8.85
2023-08-04T09:38:35.404Z,6.88
2023-08-04T09:40:38.491Z,9.95
2023-08-04T09:42:42.005Z,9.13
2023-08-04T09:44:52.237Z,5.43
2023-08-04T09:46:55.628Z,5.20
2023-08-04T09:49:00.363Z,3.28
2023-08-04T09:51:07.705Z,7.05
2023-08-04T09:53:12.178Z,6.60
2023-08-04T09:55:15.367Z,7.60
2023-08-04T09:57:17.409Z,6.97
2023-08-04T09:59:20.708Z,6.05
2023-08-04T10:01:23.728Z,5.88
2023-08-04T10:03:27.151Z,4.45
2023-08-04T10:05:31.103Z,7.85
2023-08-04T10:07:34.192Z,6.35
2023-08-04T10:09:37.802Z,7.18
2023-08-04T10:11:40.788Z,4.75
2023-08-04T10:13:45.127Z,6.07
2023-08-04T10:15:48.304Z,6.30
2023-08-04T10:17:51.320Z,4.75
2023-08-04T10:20:03.680Z,8.75
2023-08-04T10:22:07.902Z,5.53
2023-08-04T10:24:11.902Z,4.10
2023-08-04T10:26:15.480Z,7.53
2023-08-04T10:28:19.145Z,10.50
2023-08-04T10:30:25.129Z,6.15
2023-08-04T10:32:36.611Z,4.38
2023-08-04T10:34:43.440Z,4.93
2023-08-04T10:37:00.640Z,5.68
2023-08-04T10:39:03.637Z,9.48
2023-08-04T10:41:09.407Z,8.57
2023-08-04T10:43:13.788Z,7.15
2023-08-04T10:45:16.962Z,3.88
2023-08-04T10:47:33.642Z,7.20
2023-08-04T10:49:36.874Z,4.95
2023-08-04T10:51:39.948Z,6.75
2023-08-04T10:53:43.059Z,4.00
2023-08-04T10:55:53.461Z,8.63
2023-08-04T10:57:56.611Z,8.25
2023-08-04T11:00:01.226Z,7.25
2023-08-04T11:02:04.408Z,12.82
2023-08-04T11:04:07.346Z,2.75
2023-08-04T11:06:10.342Z,4.25
2023-08-04T11:08:13.452Z,5.07
2023-08-04T11:10:16.450Z,6.78
2023-08-04T11:12:19.719Z,4.85
2023-08-04T11:14:22.703Z,4.72
2023-08-04T11:16:26.056Z,4.93
2023-08-04T11:18:32.089Z,3.95
2023-08-04T11:20:35.189Z,5.43
2023-08-04T11:22:39.020Z,4.10
2023-08-04T11:24:42.185Z,3.58
2023-08-04T11:26:45.408Z,3.92
2023-08-04T11:28:51.693Z,8.38
2023-08-04T11:30:55.592Z,2.35
2023-08-04T11:33:00.187Z,7.90
2023-08-04T11:35:03.478Z,1.77
2023-08-04T11:37:06.524Z,3.35
2023-08-04T11:39:08.585Z,10.25
2023-08-04T11:41:14.345Z,5.47
2023-08-04T11:43:17.500Z,4.15
2023-08-04T11:45:20.705Z,2.95
2023-08-04T11:47:26.130Z,4.07
2023-08-04T11:49:30.943Z,5.60
2023-08-04T11:51:33.938Z,4.10
2023-08-04T11:53:38.013Z,5.75
2023-08-04T11:55:55.144Z,2.15
2023-08-04T11:57:58.108Z,2.78
2023-08-04T12:00:02.257Z,2.45
2023-08-04T12:02:16.146Z,7.75
2023-08-04T12:04:23.186Z,2.20
2023-08-04T12:06:28.370Z,6.65
2023-08-04T12:08:31.537Z,2.55
2023-08-04T12:10:34.570Z,3.28
2023-08-04T12:12:38.761Z,2.22
2023-08-04T12:15:00.267Z,7.60
2023-08-04T12:17:05.669Z,5.75
2023-08-04T12:19:08.106Z,3.22
2023-08-04T12:21:12.343Z,4.68
2023-08-04T12:23:16.018Z,1.50
2023-08-04T12:25:19.552Z,3.78
2023-08-04T12:27:22.594Z,1.67
2023-08-04T12:29:26.112Z,2.70
2023-08-04T12:31:29.271Z,3.90
2023-08-04T12:33:32.264Z,2.85
2023-08-04T12:35:35.388Z,3.33
2023-08-04T12:37:38.458Z,1.55
2023-08-04T12:39:43.151Z,3.35
2023-08-04T12:41:48.245Z,3.60
2023-08-04T12:43:51.533Z,2.63
2023-08-04T12:45:54.699Z,3.28
2023-08-04T12:47:58.036Z,3.83
2023-08-04T12:50:01.054Z,2.67
2023-08-04T12:52:04.505Z,3.78
2023-08-04T12:54:07.496Z,3.88
2023-08-04T12:56:12.045Z,2.05
2023-08-04T12:58:15.015Z,2.95
2023-08-04T13:00:18.725Z,2.55
2023-08-04T13:02:21.818Z,2.50
2023-08-04T13:04:24.790Z,2.65
2023-08-04T13:06:27.807Z,3.00
2023-08-04T13:08:30.699Z,2.83
2023-08-04T13:10:34.078Z,2.92
2023-08-04T13:12:38.825Z,1.52
2023-08-04T13:14:41.780Z,1.95
2023-08-04T13:16:44.786Z,4.43
2023-08-04T13:18:47.957Z,2.42
2023-08-04T13:20:51.767Z,3.33
2023-08-04T13:22:54.785Z,3.67
2023-08-04T13:24:57.807Z,2.53
2023-08-04T13:26:59.758Z,1.80
2023-08-04T13:29:04.428Z,2.35
2023-08-04T13:31:09.466Z,2.45
2023-08-04T13:33:13.027Z,1.40
2023-08-04T13:35:16.438Z,4.85
2023-08-04T13:37:18.478Z,3.75
2023-08-04T13:39:21.411Z,5.25
2023-08-04T13:41:24.482Z,4.15
2023-08-04T13:43:28.257Z,3.92
2023-08-04T13:45:32.616Z,3.10
2023-08-04T13:47:35.979Z,5.38
2023-08-04T13:49:38.959Z,3.50
2023-08-04T13:51:41.244Z,3.42
2023-08-04T13:53:44.423Z,2.53
2023-08-04T13:55:47.689Z,7.38
2023-08-04T13:57:50.867Z,3.33
2023-08-04T13:59:54.018Z,0.80
2023-08-04T14:01:58.439Z,1.60
2023-08-04T14:04:01.568Z,1.40
2023-08-04T14:06:05.661Z,1.58
2023-08-04T14:08:09.033Z,3.63
2023-08-04T14:10:12.282Z,2.72
2023-08-04T14:12:15.302Z,5.40
2023-08-04T14:14:18.710Z,9.25
2023-08-04T14:16:21.935Z,3.78
2023-08-04T14:18:26.217Z,3.47
2023-08-04T14:20:29.334Z,2.17
2023-08-04T14:22:32.368Z,1.55
2023-08-04T14:24:35.419Z,3.28
2023-08-04T14:26:38.380Z,2.05
2023-08-04T14:28:40.323Z,3.78
2023-08-04T14:30:43.351Z,6.15
2023-08-04T14:32:46.358Z,3.17
2023-08-04T14:34:50.714Z,3.28
2023-08-04T14:36:54.243Z,1.85
2023-08-04T14:38:57.324Z,4.35
2023-08-04T14:41:00.768Z,4.03
2023-08-04T14:43:03.760Z,3.65
2023-08-04T14:45:07.612Z,3.15
2023-08-04T14:47:10.685Z,5.03
2023-08-04T14:49:12.803Z,2.40
2023-08-04T14:51:17.098Z,3.97
2023-08-04T14:53:20.099Z,4.85
2023-08-04T14:55:22.995Z,5.90
2023-08-04T14:57:28.104Z,11.45
2023-08-04T14:59:31.730Z,3.38
2023-08-04T15:01:34.669Z,3.35
2023-08-04T15:03:39.091Z,5.30
2023-08-04T15:05:42.182Z,4.35
2023-08-04T15:07:46.466Z,3.45
2023-08-04T15:09:49.511Z,1.70
2023-08-04T15:11:52.570Z,3.75
2023-08-04T15:13:55.558Z,4.40
2023-08-04T15:16:01.429Z,2.67
2023-08-04T15:18:04.532Z,2.35
2023-08-04T15:20:09.215Z,2.90
2023-08-04T15:22:12.920Z,3.13
2023-08-04T15:24:17.262Z,4.85
2023-08-04T15:26:20.338Z,2.00
2023-08-04T15:28:23.563Z,2.95
2023-08-04T15:30:26.563Z,8.95
2023-08-04T15:32:29.692Z,1.55
2023-08-04T15:34:33.543Z,3.53
2023-08-04T15:36:36.385Z,1.92
2023-08-04T15:38:40.395Z,1.60
2023-08-04T15:40:46.846Z,2.03
2023-08-04T15:42:50.696Z,2.95
2023-08-04T15:44:53.811Z,5.75
2023-08-04T15:46:57.533Z,1.23
2023-08-04T15:49:00.719Z,1.55
2023-08-04T15:51:03.904Z,0.82
2023-08-04T15:53:06.908Z,2.90
2023-08-04T15:55:13.113Z,4.38
2023-08-04T15:57:18.218Z,5.47
2023-08-04T15:59:21.765Z,2.10
2023-08-04T16:01:23.902Z,21.77
2023-08-04T16:03:26.851Z,4.28
2023-08-04T16:05:29.831Z,3.70
2023-08-04T16:07:32.709Z,1.52
2023-08-04T16:09:35.686Z,6.40
2023-08-04T16:11:38.642Z,5.88
2023-08-04T16:13:43.176Z,3.10
2023-08-04T16:15:46.270Z,4.43
2023-08-04T16:17:49.754Z,0.98
2023-08-04T16:19:52.730Z,2.47
2023-08-04T16:21:54.697Z,3.85
2023-08-04T16:23:57.698Z,5.70
2023-08-04T16:26:00.723Z,2.90
2023-08-04T16:28:03.651Z,4.05
2023-08-04T16:30:09.763Z,3.03
2023-08-04T16:32:13.084Z,4.60
2023-08-04T16:34:15.956Z,1.33
2023-08-04T16:36:18.995Z,4.03
2023-08-04T16:38:22.148Z,2.10
2023-08-04T16:40:25.567Z,2.03
2023-08-04T16:42:29.469Z,3.30
2023-08-04T16:44:32.499Z,3.47
2023-08-04T16:46:36.968Z,3.05
2023-08-04T16:48:39.970Z,2.65
2023-08-04T16:50:42.898Z,3.08
2023-08-04T16:52:45.831Z,3.08
2023-08-04T16:54:48.877Z,2.67
2023-08-04T16:56:52.019Z,2.60
2023-08-04T16:58:54.069Z,3.45
2023-08-04T17:00:56.994Z,5.13
2023-08-04T17:03:02.149Z,1.85
2023-08-04T17:05:04.715Z,6.35
2023-08-04T17:07:08.178Z,3.30
2023-08-04T17:09:11.118Z,3.53
2023-08-04T17:11:14.117Z,3.45
2023-08-04T17:13:17.072Z,5.63
2023-08-04T17:15:33.892Z,5.03
2023-08-04T17:17:39.128Z,3.30
2023-08-04T17:19:43.592Z,3.38
2023-08-04T17:21:47.090Z,2.83
2023-08-04T17:23:50.147Z,6.60
2023-08-04T17:25:53.515Z,4.15
2023-08-04T17:27:56.754Z,7.57
2023-08-04T17:29:58.908Z,9.70
2023-08-04T17:32:02.116Z,6.75
2023-08-04T17:34:05.565Z,4.93
2023-08-04T17:36:08.915Z,5.22
2023-08-04T17:38:12.076Z,6.90
2023-08-04T17:40:15.087Z,3.65
2023-08-04T17:42:18.074Z,5.53
2023-08-04T17:44:21.343Z,5.35
2023-08-04T17:46:24.621Z,4.50
2023-08-04T17:48:27.589Z,5.00
2023-08-04T17:50:29.554Z,4.40
2023-08-04T17:52:33.906Z,9.07
2023-08-04T17:54:36.944Z,5.05
2023-08-04T17:56:39.999Z,7.78
2023-08-04T17:58:42.983Z,4.25
2023-08-04T18:00:46.638Z,9.80
2023-08-04T18:02:49.830Z,5.10
2023-08-04T18:04:53.157Z,7.68
2023-08-04T18:06:56.263Z,5.75
2023-08-04T18:09:00.594Z,3.63
2023-08-04T18:11:03.853Z,6.75
2023-08-04T18:13:05.813Z,5.05
2023-08-04T18:15:09.492Z,5.82
2023-08-04T18:17:12.588Z,3.50
2023-08-04T18:19:14.682Z,7.38
2023-08-04T18:21:17.588Z,4.88
2023-08-04T18:23:20.545Z,3.72
2023-08-04T18:25:24.869Z,5.85
2023-08-04T18:27:27.890Z,5.22
2023-08-04T18:29:30.846Z,3.10
2023-08-04T18:31:33.873Z,7.35
2023-08-04T18:33:36.862Z,5.57
2023-08-04T18:35:39.860Z,4.32
2023-08-04T18:37:42.946Z,5.40
2023-08-04T18:39:48.118Z,6.35
2023-08-04T18:41:53.280Z,10.15
2023-08-04T18:43:56.238Z,7.22
2023-08-04T18:45:59.319Z,7.53
2023-08-04T18:48:02.366Z,5.47
2023-08-04T18:50:05.922Z,6.03
2023-08-04T18:52:09.585Z,6.65
2023-08-04T18:54:13.114Z,6.18
2023-08-04T18:56:16.301Z,6.68
2023-08-04T18:58:20.692Z,6.68
2023-08-04T19:00:25.568Z,5.68
2023-08-04T19:02:29.102Z,4.57
2023-08-04T19:04:32.279Z,10.35
2023-08-04T19:06:35.434Z,6.15
2023-08-04T19:08:38.492Z,14.40
2023-08-04T19:10:41.523Z,6.30
2023-08-04T19:12:45.657Z,10.23
2023-08-04T19:14:50.818Z,6.60
2023-08-04T19:16:53.905Z,3.92
2023-08-04T19:18:56.966Z,5.60
2023-08-04T19:20:59.918Z,7.10
2023-08-04T19:23:02.922Z,11.70
2023-08-04T19:25:07.349Z,6.03
2023-08-04T19:27:10.317Z,19.17
2023-08-04T19:29:13.351Z,6.85
2023-08-04T19:31:18.353Z,4.32
2023-08-04T19:33:21.597Z,6.10
2023-08-04T19:35:24.629Z,5.80
2023-08-04T19:37:27.945Z,6.45
2023-08-04T19:39:30.999Z,6.88
2023-08-04T19:41:34.050Z,6.95
2023-08-04T19:43:37.380Z,8.27
2023-08-04T19:45:40.401Z,6.03
2023-08-04T19:47:45.058Z,4.97
2023-08-04T19:49:48.121Z,7.38
2023-08-04T19:51:51.479Z,5.88
2023-08-04T19:53:55.122Z,3.67
2023-08-04T19:56:08.357Z,6.18
2023-08-04T19:58:12.899Z,6.35
2023-08-04T20:00:16.036Z,18.70
2023-08-04T20:05:56.643Z,6.10
2023-08-04T20:07:59.625Z,5.25
2023-08-04T20:10:02.796Z,8.75
2023-08-04T20:12:06.727Z,14.43
2023-08-04T20:14:09.846Z,8.93
2023-08-04T20:16:15.989Z,4.68
2023-08-04T20:18:19.210Z,10.27
2023-08-04T20:20:22.322Z,4.22
2023-08-04T20:22:26.707Z,3.33
2023-08-04T20:24:29.754Z,6.82
2023-08-04T20:26:32.645Z,10.27
2023-08-04T20:28:35.726Z,14.55
2023-08-04T20:30:38.716Z,7.95
2023-08-04T20:32:42.264Z,5.63
2023-08-04T20:34:45.839Z,5.70
2023-08-04T20:36:49.450Z,5.95
2023-08-04T20:38:54.061Z,7.30
2023-08-04T20:41:02.182Z,3.42
2023-08-04T20:43:05.115Z,4.05
2023-08-04T20:45:09.664Z,5.05
2023-08-04T20:47:12.701Z,7.47
2023-08-04T20:49:16.341Z,6.47
2023-08-04T20:51:19.450Z,5.32
2023-08-04T20:53:21.777Z,11.73
2023-08-04T20:55:26.194Z,10.80
2023-08-04T20:57:29.800Z,4.13
2023-08-04T20:59:35.479Z,7.05
2023-08-04T21:01:38.537Z,6.55
2023-08-04T21:03:41.448Z,5.78
2023-08-04T21:05:44.920Z,7.57
2023-08-04T21:07:47.833Z,10.50
2023-08-04T21:09:50.861Z,9.55
2023-08-04T21:11:55.278Z,6.78
2023-08-04T21:13:58.239Z,6.20
2023-08-04T21:16:01.531Z,8.15
2023-08-04T21:18:04.148Z,5.28
2023-08-04T21:20:09.628Z,4.60
2023-08-04T21:22:13.226Z,7.47
2023-08-04T21:24:16.161Z,4.82
2023-08-04T21:26:20.334Z,2.40
2023-08-04T21:28:24.836Z,5.47
2023-08-04T21:30:27.956Z,6.03
2023-08-04T21:32:30.105Z,7.82
2023-08-04T21:34:33.189Z,6.28
2023-08-04T21:36:36.299Z,5.40
2023-08-04T21:38:39.298Z,4.20
2023-08-04T21:40:42.646Z,5.63
2023-08-04T21:42:46.778Z,6.18
2023-08-04T21:44:54.919Z,8.18
2023-08-04T21:46:57.932Z,6.78
2023-08-04T21:49:01.084Z,6.05
2023-08-04T21:51:10.294Z,5.68
2023-08-04T21:53:14.933Z,2.78
2023-08-04T21:55:19.610Z,4.25
2023-08-04T21:57:22.766Z,6.57
2023-08-04T21:59:25.846Z,4.82
2023-08-04T22:01:30.252Z,8.20
2023-08-04T22:03:33.510Z,3.88
2023-08-04T22:05:36.590Z,4.38
2023-08-04T22:07:40.297Z,8.40
2023-08-04T22:09:43.489Z,3.97
2023-08-04T22:11:46.483Z,7.10
2023-08-04T22:13:49.483Z,3.47
2023-08-04T22:15:52.626Z,8.45
2023-08-04T22:17:57.116Z,5.97
2023-08-04T22:20:00.258Z,5.57
2023-08-04T22:22:06.525Z,3.83
2023-08-04T22:24:09.537Z,4.53
2023-08-04T22:26:12.724Z,7.70
2023-08-04T22:28:16.284Z,6.03
2023-08-04T22:30:19.516Z,7.43
2023-08-04T22:32:22.463Z,4.60
2023-08-04T22:34:26.872Z,4.13
2023-08-04T22:36:28.836Z,3.90
2023-08-04T22:38:31.969Z,3.03
2023-08-04T22:40:34.941Z,13.88
2023-08-04T22:42:37.965Z,7.80
2023-08-04T22:44:41.071Z,4.95
2023-08-04T22:46:44.271Z,7.07
2023-08-04T22:48:47.326Z,8.38
2023-08-04T22:50:51.665Z,6.47
2023-08-04T22:52:54.509Z,11.25
2023-08-04T22:54:57.530Z,6.22
2023-08-04T22:57:00.514Z,5.97
2023-08-04T22:59:03.445Z,5.03
2023-08-04T23:01:06.908Z,4.68
2023-08-04T23:03:10.521Z,2.83
2023-08-04T23:05:13.830Z,3.63
2023-08-04T23:07:18.146Z,4.10
2023-08-04T23:09:21.058Z,5.90
2023-08-04T23:11:24.193Z,5.15
2023-08-04T23:13:27.467Z,5.22
2023-08-04T23:15:29.395Z,4.47
2023-08-04T23:17:32.440Z,5.28
2023-08-04T23:19:35.364Z,3.92
2023-08-04T23:21:38.341Z,6.25
2023-08-04T23:23:42.667Z,4.03
2023-08-04T23:25:45.142Z,7.65
2023-08-04T23:27:48.057Z,9.20
2023-08-04T23:29:51.027Z,6.97
2023-08-04T23:31:53.944Z,6.07
2023-08-04T23:33:56.870Z,8.30
2023-08-04T23:35:59.846Z,5.75
2023-08-04T23:38:01.788Z,6.95
2023-08-04T23:40:07.559Z,7.35
2023-08-04T23:42:10.479Z,8.40
2023-08-04T23:44:13.439Z,5.43
2023-08-04T23:46:16.541Z,5.18
2023-08-04T23:48:19.576Z,6.35
2023-08-04T23:50:22.506Z,8.68
2023-08-04T23:52:25.454Z,7.03
2023-08-04T23:54:28.366Z,7.63
2023-08-04T23:56:32.609Z,15.40
2023-08-04T23:58:35.541Z,10.25
